Time;durP1;ratioP1;P1;durP2;ratioP2;P2;SDS_P1;SDS_P2;PMS_P1;PMS_P2;Temp;Humidity;BMP_temperature;BMP_pressure;BME280_temperature;BME280_humidity;BME280_pressure;Samples;Min_cycle;Max_cycle;Signal;HPM_P1;HPM_P2
2023/01/02 00:00:21;;;;;;;20.55;13.20;;;24.10;50.10;;;;;;6065263;28;83910;-58
2023/01/02 00:03:22;;;;;;;22.92;13.82;;;24.10;49.90;;;;;;6080953;28;83432;-58
2023/01/02 00:06:22;;;;;;;19.00;13.00;;;24.10;50.50;;;;;;6050341;28;86419;-60
2023/01/02 00:09:24;;;;;;;21.35;13.93;;;24.10;50.10;;;;;;6052399;28;83156;-67
2023/01/02 00:12:24;;;;;;;18.30;12.55;;;24.10;49.90;;;;;;6056773;28;83997;-66
2023/01/02 00:15:25;;;;;;;19.80;12.65;;;24.10;50.00;;;;;;6065221;28;83759;-66
2023/01/02 00:18:25;;;;;;;21.08;13.20;;;24.10;50.10;;;;;;6078087;28;83770;-67
2023/01/02 00:21:26;;;;;;;17.55;11.70;;;24.10;50.20;;;;;;6062491;28;83200;-67
2023/01/02 00:24:26;;;;;;;19.00;12.23;;;24.10;50.20;;;;;;6057128;28;83246;-67
2023/01/02 00:27:27;;;;;;;16.80;11.40;;;24.00;50.10;;;;;;6066524;28;83484;-59
2023/01/02 00:30:27;;;;;;;17.85;11.13;;;24.00;50.00;;;;;;6077321;28;83244;-59
2023/01/02 00:33:28;;;;;;;20.08;12.43;;;24.00;50.00;;;;;;6074341;28;84626;-58
2023/01/02 00:36:28;;;;;;;21.15;12.43;;;24.00;49.90;;;;;;6074944;28;83522;-59
2023/01/02 00:39:29;;;;;;;18.75;12.13;;;24.00;49.90;;;;;;6079476;28;84349;-59
2023/01/02 00:42:29;;;;;;;17.35;11.50;;;24.00;49.80;;;;;;6080310;28;83179;-59
2023/01/02 00:45:30;;;;;;;18.65;11.05;;;24.10;49.90;;;;;;6074610;28;84009;-59
2023/01/02 00:48:30;;;;;;;17.58;11.65;;;24.00;49.70;;;;;;6072045;28;83549;-60
2023/01/02 00:51:31;;;;;;;18.02;12.05;;;24.00;49.80;;;;;;6071972;28;83146;-60
2023/01/02 00:54:32;;;;;;;18.15;11.18;;;24.00;49.80;;;;;;6062512;28;85739;-60
2023/01/02 00:57:32;;;;;;;16.75;11.55;;;24.00;49.60;;;;;;6053877;28;83750;-59
2023/01/02 01:00:34;;;;;;;21.77;11.38;;;24.00;49.70;;;;;;6077973;28;83932;-59
2023/01/02 01:03:34;;;;;;;20.58;11.77;;;24.00;49.70;;;;;;6068367;28;83345;-63
2023/01/02 01:06:35;;;;;;;19.15;11.98;;;24.00;49.60;;;;;;6066962;28;84102;-64
2023/01/02 01:09:35;;;;;;;17.45;11.43;;;24.00;49.60;;;;;;6062640;28;88714;-64
2023/01/02 01:12:36;;;;;;;17.90;12.23;;;24.00;49.60;;;;;;6075910;28;83167;-63
2023/01/02 01:15:36;;;;;;;17.60;10.70;;;24.00;49.60;;;;;;6076954;28;83603;-63
2023/01/02 01:18:37;;;;;;;17.83;11.68;;;24.00;49.80;;;;;;6076337;28;83828;-61
2023/01/02 01:21:37;;;;;;;15.60;10.27;;;24.00;49.80;;;;;;6064735;28;83353;-71
2023/01/02 01:24:38;;;;;;;16.15;11.05;;;24.00;49.80;;;;;;6073542;28;83115;-72
2023/01/02 01:27:38;;;;;;;16.80;10.25;;;24.00;49.90;;;;;;6070475;28;86407;-71
2023/01/02 01:30:39;;;;;;;16.23;10.15;;;24.00;50.00;;;;;;6077822;28;84620;-70
2023/01/02 01:33:40;;;;;;;14.70;9.70;;;24.00;50.00;;;;;;6055042;28;83878;-69
2023/01/02 01:36:40;;;;;;;16.17;10.63;;;24.00;50.00;;;;;;6066667;28;83439;-70
2023/01/02 01:39:41;;;;;;;14.30;10.35;;;24.00;50.00;;;;;;6064389;28;85982;-69
2023/01/02 01:42:41;;;;;;;15.60;10.13;;;24.00;50.00;;;;;;6072344;28;84231;-70
2023/01/02 01:45:43;;;;;;;15.88;10.55;;;24.00;49.90;;;;;;6065574;28;83825;-69
2023/01/02 01:48:43;;;;;;;17.77;10.05;;;24.00;49.90;;;;;;6053168;28;83801;-70
2023/01/02 01:51:44;;;;;;;15.27;10.20;;;24.00;49.90;;;;;;6058208;28;83048;-70
2023/01/02 01:54:44;;;;;;;16.92;10.48;;;24.00;50.00;;;;;;6066774;28;84190;-70
2023/01/02 01:57:45;;;;;;;15.75;9.98;;;23.90;49.90;;;;;;6099520;28;84001;-62
2023/01/02 02:00:45;;;;;;;15.82;10.13;;;24.00;50.00;;;;;;6087220;28;83713;-62
2023/01/02 02:03:46;;;;;;;14.52;9.60;;;23.90;50.50;;;;;;6089384;28;83453;-62
2023/01/02 02:06:47;;;;;;;15.57;9.65;;;24.00;50.00;;;;;;6091504;28;83146;-63
2023/01/02 02:09:47;;;;;;;15.75;10.13;;;23.90;50.00;;;;;;6079467;28;80786;-63
2023/01/02 02:12:48;;;;;;;13.35;9.35;;;23.90;50.10;;;;;;6075196;28;83093;-63
2023/01/02 02:15:48;;;;;;;15.63;10.52;;;24.00;50.20;;;;;;6095390;28;83206;-63
2023/01/02 02:18:49;;;;;;;13.90;9.02;;;23.90;50.10;;;;;;6085578;28;84244;-70
2023/01/02 02:21:49;;;;;;;17.58;10.35;;;24.00;50.10;;;;;;6065423;28;83847;-71
2023/01/02 02:24:50;;;;;;;17.25;10.25;;;23.90;49.90;;;;;;6073526;28;83567;-71
2023/01/02 02:27:50;;;;;;;16.25;10.30;;;23.90;49.80;;;;;;6069001;28;83513;-71
2023/01/02 02:30:51;;;;;;;15.85;10.35;;;23.90;49.70;;;;;;6078048;28;83135;-71
2023/01/02 02:33:51;;;;;;;15.10;10.35;;;23.90;49.40;;;;;;6087185;28;83597;-71
2023/01/02 02:36:52;;;;;;;14.30;9.75;;;23.90;49.40;;;;;;6064741;28;83537;-71
2023/01/02 02:39:52;;;;;;;13.20;9.43;;;23.90;49.30;;;;;;6082453;28;81585;-71
2023/01/02 02:42:53;;;;;;;16.80;10.05;;;23.90;49.30;;;;;;6055567;28;80976;-71
2023/01/02 02:45:53;;;;;;;14.77;9.65;;;23.90;49.10;;;;;;6074554;28;83657;-70
2023/01/02 02:48:54;;;;;;;17.90;11.10;;;23.90;49.10;;;;;;6078864;28;83151;-67
2023/01/02 02:51:54;;;;;;;14.25;9.82;;;23.90;49.10;;;;;;6088505;28;83656;-67
2023/01/02 02:54:55;;;;;;;16.35;9.60;;;23.90;48.90;;;;;;6076755;28;82999;-63
2023/01/02 02:57:56;;;;;;;14.90;9.77;;;23.90;49.00;;;;;;6067073;28;81406;-63
2023/01/02 03:00:56;;;;;;;15.05;9.43;;;23.90;48.90;;;;;;6078059;28;80923;-63
2023/01/02 03:03:57;;;;;;;15.30;9.80;;;23.90;48.80;;;;;;6072211;28;81055;-63
2023/01/02 03:06:57;;;;;;;13.90;9.25;;;23.90;48.90;;;;;;6085028;28;81101;-63
2023/01/02 03:09:58;;;;;;;14.52;9.68;;;23.90;48.70;;;;;;6078930;28;83049;-64
2023/01/02 03:12:58;;;;;;;14.45;9.88;;;23.90;48.70;;;;;;6067777;28;82519;-69
2023/01/02 03:15:59;;;;;;;14.95;9.93;;;23.90;48.60;;;;;;6052506;28;85132;-68
2023/01/02 03:18:59;;;;;;;15.75;10.52;;;23.80;48.50;;;;;;6063717;28;80856;-67
2023/01/02 03:22:00;;;;;;;16.55;10.23;;;23.90;48.60;;;;;;6053385;28;83060;-68
2023/01/02 03:25:00;;;;;;;13.07;9.55;;;23.80;48.60;;;;;;6051379;28;84030;-68
2023/01/02 03:28:01;;;;;;;14.75;10.05;;;23.80;48.50;;;;;;6055771;28;83586;-68
2023/01/02 03:31:01;;;;;;;16.05;11.18;;;23.80;48.50;;;;;;6073630;28;83195;-70
2023/01/02 03:34:02;;;;;;;14.57;10.05;;;23.80;48.30;;;;;;6055247;28;84801;-70
2023/01/02 03:37:02;;;;;;;15.50;10.63;;;23.80;48.30;;;;;;6068430;28;83474;-70
2023/01/02 03:40:03;;;;;;;15.45;10.02;;;23.80;48.30;;;;;;6074944;28;84180;-68
2023/01/02 03:43:03;;;;;;;15.25;10.00;;;23.80;48.40;;;;;;6074711;28;84120;-69
2023/01/02 03:46:04;;;;;;;17.05;10.57;;;23.80;48.30;;;;;;6079504;28;83528;-68
2023/01/02 03:49:04;;;;;;;15.45;10.25;;;23.80;48.30;;;;;;6070023;28;83809;-58
2023/01/02 03:52:05;;;;;;;15.63;10.93;;;23.80;48.20;;;;;;6063446;28;82846;-59
2023/01/02 03:55:06;;;;;;;15.18;9.70;;;23.80;48.20;;;;;;6074435;28;83686;-60
2023/01/02 03:58:06;;;;;;;16.48;10.85;;;23.80;48.30;;;;;;6079634;28;83155;-59
2023/01/02 04:01:07;;;;;;;14.50;10.23;;;23.80;48.30;;;;;;6071126;28;84776;-59
2023/01/02 04:04:07;;;;;;;15.27;9.93;;;23.80;48.30;;;;;;6085159;28;83336;-59
2023/01/02 04:07:08;;;;;;;15.20;10.32;;;23.80;48.30;;;;;;6081922;28;83689;-63
2023/01/02 04:10:08;;;;;;;16.02;10.90;;;23.80;48.30;;;;;;6079275;28;82968;-62
2023/01/02 04:13:09;;;;;;;14.48;9.80;;;23.70;48.10;;;;;;6086632;28;83775;-60
2023/01/02 04:16:09;;;;;;;17.30;10.68;;;23.80;48.10;;;;;;6077976;28;83425;-63
2023/01/02 04:19:10;;;;;;;18.85;11.30;;;23.80;48.10;;;;;;6074201;28;83133;-62
2023/01/02 04:22:10;;;;;;;17.27;10.32;;;23.80;48.10;;;;;;6058196;28;83476;-62
2023/01/02 04:25:12;;;;;;;15.30;10.35;;;23.80;47.90;;;;;;6048631;28;83942;-60
2023/01/02 04:28:12;;;;;;;17.92;11.02;;;23.80;47.80;;;;;;6070955;28;83240;-62
2023/01/02 04:31:13;;;;;;;16.30;10.52;;;23.90;47.80;;;;;;6064896;28;83189;-61
2023/01/02 04:34:14;;;;;;;19.88;11.65;;;23.90;47.80;;;;;;6063627;28;84148;-61
2023/01/02 04:37:14;;;;;;;16.80;10.55;;;24.00;47.60;;;;;;6070453;28;84298;-61
2023/01/02 04:40:15;;;;;;;15.27;10.07;;;24.00;47.40;;;;;;6065697;28;83798;-61
2023/01/02 04:43:18;;;;;;;16.65;10.70;;;24.10;47.30;;;;;;6069396;28;84343;-61
2023/01/02 04:46:19;;;;;;;16.35;11.52;;;24.10;47.10;;;;;;6071675;28;83296;-62
2023/01/02 04:49:21;;;;;;;16.40;10.18;;;24.20;47.00;;;;;;6100825;28;88073;-61
2023/01/02 04:52:22;;;;;;;19.20;10.65;;;24.20;47.10;;;;;;6101445;28;83348;-60
2023/01/02 04:55:22;;;;;;;15.75;9.80;;;24.20;47.00;;;;;;6100845;28;85995;-61
2023/01/02 04:58:23;;;;;;;14.60;9.30;;;24.30;46.90;;;;;;6104274;28;82361;-60
2023/01/02 05:01:23;;;;;;;14.93;9.93;;;24.30;46.90;;;;;;6104604;28;81520;-61
2023/01/02 05:04:24;;;;;;;13.63;9.02;;;24.30;46.80;;;;;;6103965;28;81024;-60
2023/01/02 05:07:25;;;;;;;15.30;9.68;;;24.30;46.70;;;;;;6113093;28;81257;-60
2023/01/02 05:10:25;;;;;;;14.63;10.02;;;24.30;46.60;;;;;;6107351;28;81658;-59
2023/01/02 05:13:26;;;;;;;13.38;9.10;;;24.30;46.60;;;;;;6115255;28;83332;-62
2023/01/02 05:16:26;;;;;;;14.32;9.40;;;24.40;46.60;;;;;;6114454;28;82358;-61
2023/01/02 05:19:27;;;;;;;14.80;9.90;;;24.30;46.50;;;;;;6082860;28;80992;-63
2023/01/02 05:25:47;;;;;;;13.80;9.90;;;24.40;46.80;;;;;;6080783;28;82897;-60
2023/01/02 05:28:47;;;;;;;16.70;9.13;;;24.40;47.00;;;;;;6095824;28;80829;-61
2023/01/02 05:31:48;;;;;;;16.08;9.30;;;24.30;47.20;;;;;;6098493;28;86997;-61
2023/01/02 05:34:48;;;;;;;16.00;9.95;;;24.30;46.90;;;;;;6095012;28;80527;-61
2023/01/02 05:37:49;;;;;;;15.32;10.20;;;24.30;47.10;;;;;;6088677;28;80614;-65
2023/01/02 05:40:49;;;;;;;18.05;10.07;;;24.40;47.30;;;;;;6063611;28;84385;-60
2023/01/02 05:43:50;;;;;;;14.55;9.73;;;24.30;47.00;;;;;;6081536;28;82901;-59
2023/01/02 05:46:50;;;;;;;20.45;10.20;;;24.30;47.10;;;;;;6088501;28;84042;-61
2023/01/02 05:49:51;;;;;;;15.75;10.43;;;24.30;47.20;;;;;;6098576;28;83174;-62
2023/01/02 05:52:51;;;;;;;17.67;9.82;;;24.30;47.20;;;;;;6080720;28;83054;-58
2023/01/02 05:55:52;;;;;;;16.30;10.27;;;24.40;47.30;;;;;;6095931;28;83153;-61
2023/01/02 05:58:52;;;;;;;20.50;9.85;;;24.30;47.70;;;;;;6078118;28;86389;-62
2023/01/02 06:01:53;;;;;;;11.88;7.80;;;24.20;48.20;;;;;;6072440;28;83134;-57
2023/01/02 06:04:54;;;;;;;14.75;7.38;;;24.00;48.30;;;;;;6078772;28;81079;-59
2023/01/02 06:07:54;;;;;;;10.77;7.15;;;24.00;48.40;;;;;;6079211;28;81619;-61
2023/01/02 06:10:55;;;;;;;10.75;7.32;;;24.00;49.00;;;;;;6069004;28;84977;-60
2023/01/02 06:13:55;;;;;;;10.95;7.30;;;23.90;49.50;;;;;;6094279;28;82350;-60
2023/01/02 06:16:56;;;;;;;10.25;6.43;;;23.80;50.00;;;;;;6070507;28;80818;-56
2023/01/02 06:19:56;;;;;;;10.50;7.13;;;23.80;50.60;;;;;;6083712;28;81019;-59
2023/01/02 06:22:57;;;;;;;12.02;6.65;;;23.80;51.40;;;;;;6091116;28;81822;-59
2023/01/02 06:25:57;;;;;;;8.45;6.70;;;23.80;51.60;;;;;;6083423;28;84781;-60
2023/01/02 06:28:58;;;;;;;10.27;6.85;;;23.80;51.80;;;;;;6083366;28;80664;-60
2023/01/02 06:31:59;;;;;;;11.95;6.97;;;23.80;52.20;;;;;;6091098;28;82817;-60
2023/01/02 06:34:59;;;;;;;11.07;6.75;;;23.70;52.70;;;;;;6078809;28;86992;-59
2023/01/02 06:38:00;;;;;;;11.68;7.57;;;23.70;52.90;;;;;;6073034;28;82627;-58
2023/01/02 06:41:00;;;;;;;9.38;6.53;;;23.70;53.10;;;;;;6086357;28;84896;-59
2023/01/02 06:44:01;;;;;;;11.40;7.20;;;23.70;53.60;;;;;;6083701;28;80689;-61
2023/01/02 06:47:01;;;;;;;8.02;6.22;;;23.60;53.50;;;;;;6075813;28;80847;-61
2023/01/02 06:50:02;;;;;;;8.05;6.30;;;23.60;53.90;;;;;;6076586;28;81300;-59
2023/01/02 06:53:03;;;;;;;9.35;6.20;;;23.70;53.90;;;;;;6080154;28;80762;-66
2023/01/02 06:56:03;;;;;;;9.55;6.43;;;23.70;53.90;;;;;;5974702;28;81933;-64
2023/01/02 06:59:04;;;;;;;9.13;6.40;;;23.70;54.20;;;;;;5922061;28;82850;-67
2023/01/02 07:02:04;;;;;;;15.48;8.32;;;23.70;54.50;;;;;;6077810;28;81596;-66
2023/01/02 07:05:05;;;;;;;12.05;7.95;;;23.70;53.50;;;;;;6087982;28;80641;-68
2023/01/02 07:08:06;;;;;;;14.45;9.00;;;23.80;53.70;;;;;;6088137;28;83001;-66
2023/01/02 07:11:06;;;;;;;13.98;8.45;;;23.80;53.60;;;;;;6093163;28;81299;-66
2023/01/02 07:14:07;;;;;;;12.10;8.00;;;23.80;53.40;;;;;;6091401;28;81747;-63
2023/01/02 07:17:07;;;;;;;13.70;8.50;;;23.80;53.20;;;;;;6093560;28;81472;-64
2023/01/02 07:20:08;;;;;;;16.35;9.63;;;23.80;53.10;;;;;;6096895;28;80263;-62
2023/01/02 07:23:08;;;;;;;12.52;7.95;;;23.80;52.70;;;;;;6067032;28;81304;-66
2023/01/02 07:26:09;;;;;;;14.27;8.43;;;23.80;53.10;;;;;;6084261;28;80968;-64
2023/01/02 07:29:10;;;;;;;12.48;8.13;;;23.80;53.20;;;;;;6071996;28;81614;-66
2023/01/02 07:32:10;;;;;;;11.80;8.20;;;23.80;52.80;;;;;;6052014;28;83906;-66
2023/01/02 07:35:11;;;;;;;13.05;8.25;;;23.80;53.30;;;;;;6063449;28;81423;-65
2023/01/02 07:38:11;;;;;;;12.93;7.85;;;23.80;53.10;;;;;;6050009;28;84008;-65
2023/01/02 07:41:13;;;;;;;12.30;8.63;;;23.80;52.90;;;;;;6084803;28;84752;-67
2023/01/02 07:44:13;;;;;;;13.32;8.63;;;23.80;53.10;;;;;;6086100;28;84050;-64
2023/01/02 07:47:14;;;;;;;14.52;9.30;;;23.80;53.30;;;;;;6069828;28;81375;-63
2023/01/02 07:50:14;;;;;;;13.40;8.68;;;23.80;52.80;;;;;;6076586;28;87741;-63
2023/01/02 07:53:15;;;;;;;13.38;9.40;;;23.70;52.70;;;;;;6069733;28;80880;-56
2023/01/02 07:56:15;;;;;;;14.85;9.18;;;23.70;52.70;;;;;;6055833;28;81629;-56
2023/01/02 07:59:16;;;;;;;14.30;9.27;;;23.70;53.20;;;;;;6059524;28;87668;-59
2023/01/02 08:02:16;;;;;;;13.10;8.68;;;23.80;53.40;;;;;;6052608;28;86240;-57
2023/01/02 08:05:17;;;;;;;12.07;8.10;;;23.80;53.90;;;;;;6046452;28;82722;-60
2023/01/02 08:08:18;;;;;;;12.25;8.25;;;23.80;54.10;;;;;;6049777;28;80805;-59
2023/01/02 08:11:18;;;;;;;12.98;9.05;;;23.90;54.00;;;;;;6060423;28;81207;-58
2023/01/02 08:14:19;;;;;;;11.30;8.70;;;23.90;53.90;;;;;;6048915;28;89570;-60
2023/01/02 08:17:19;;;;;;;12.77;8.43;;;23.90;53.80;;;;;;6049449;28;82972;-61
2023/01/02 08:20:20;;;;;;;17.20;9.65;;;23.90;54.10;;;;;;6060648;28;81609;-60
2023/01/02 08:23:20;;;;;;;16.85;9.50;;;23.90;54.20;;;;;;6059045;28;80821;-61
2023/01/02 08:26:22;;;;;;;12.90;9.38;;;23.90;54.30;;;;;;6062913;28;80687;-60
2023/01/02 08:29:22;;;;;;;14.52;8.77;;;23.90;54.50;;;;;;6064276;28;80546;-63
2023/01/02 08:32:23;;;;;;;22.02;9.82;;;24.00;54.20;;;;;;6066375;28;84238;-63
2023/01/02 08:35:23;;;;;;;16.60;10.10;;;24.00;54.60;;;;;;6058590;28;81324;-60
2023/01/02 08:38:24;;;;;;;17.95;10.18;;;24.10;54.00;;;;;;6065190;28;84871;-61
2023/01/02 08:41:24;;;;;;;20.08;10.52;;;24.10;53.80;;;;;;6061391;28;85889;-60
2023/01/02 08:44:25;;;;;;;17.10;9.50;;;24.20;54.10;;;;;;6054054;28;83804;-62
2023/01/02 08:47:25;;;;;;;19.33;10.25;;;24.20;53.90;;;;;;6070645;28;82018;-63
2023/01/02 08:50:26;;;;;;;16.63;9.40;;;24.30;53.60;;;;;;6072289;28;85055;-62
2023/01/02 08:53:26;;;;;;;14.98;8.88;;;24.30;53.40;;;;;;6082271;28;82055;-61
2023/01/02 08:56:27;;;;;;;18.13;10.38;;;24.30;54.00;;;;;;6077861;28;80089;-67
2023/01/02 08:59:28;;;;;;;15.23;8.82;;;24.30;52.80;;;;;;6067732;28;83229;-60
2023/01/02 09:02:28;;;;;;;19.42;9.50;;;24.40;52.70;;;;;;6080401;28;83103;-61
2023/01/02 09:05:29;;;;;;;14.68;9.25;;;24.40;52.10;;;;;;6058894;28;81471;-61
2023/01/02 09:08:30;;;;;;;16.63;10.55;;;24.30;51.80;;;;;;6072891;28;82714;-63
2023/01/02 09:11:30;;;;;;;16.17;9.75;;;24.30;51.30;;;;;;6074311;28;83269;-63
2023/01/02 09:14:31;;;;;;;18.75;11.00;;;24.30;51.30;;;;;;6067934;28;83641;-63
2023/01/02 09:17:31;;;;;;;15.82;9.57;;;24.20;51.20;;;;;;6065415;28;83658;-63
2023/01/02 09:20:32;;;;;;;15.77;10.43;;;24.10;51.10;;;;;;6072434;28;83212;-58
2023/01/02 09:23:32;;;;;;;16.20;10.40;;;24.10;51.20;;;;;;6068417;28;83143;-59
2023/01/02 09:26:36;;;;;;;14.82;10.15;;;24.00;51.20;;;;;;6055166;28;83206;-60
2023/01/02 09:29:37;;;;;;;15.75;10.13;;;24.00;51.10;;;;;;6068482;28;83556;-58
2023/01/02 09:32:37;;;;;;;16.98;11.20;;;24.00;51.10;;;;;;6067728;28;82794;-58
2023/01/02 09:35:38;;;;;;;15.90;9.80;;;24.00;51.20;;;;;;6063988;28;83212;-56
2023/01/02 09:38:38;;;;;;;16.73;10.27;;;24.00;50.90;;;;;;6064204;28;83501;-64
2023/01/02 09:41:39;;;;;;;13.82;9.48;;;24.00;51.00;;;;;;6054688;28;86537;-63
2023/01/02 09:44:39;;;;;;;15.50;9.57;;;24.10;50.80;;;;;;6068863;28;83360;-64
2023/01/02 09:47:41;;;;;;;14.77;8.65;;;24.20;50.80;;;;;;6062438;28;81539;-64
2023/01/02 09:50:41;;;;;;;16.00;9.80;;;24.40;50.90;;;;;;6057525;28;82072;-64
2023/01/02 09:53:42;;;;;;;13.75;9.93;;;24.40;49.90;;;;;;6059644;28;81978;-67
2023/01/02 09:56:42;;;;;;;16.63;9.27;;;24.40;49.80;;;;;;6055207;28;80632;-62
2023/01/02 09:59:43;;;;;;;15.27;9.25;;;24.40;50.10;;;;;;6052757;28;80963;-62
2023/01/02 10:02:43;;;;;;;23.88;16.45;;;24.40;50.00;;;;;;6073212;28;83463;-60
2023/01/02 10:05:45;;;;;;;32.72;20.80;;;24.60;47.30;;;;;;6054633;28;83182;-60
2023/01/02 10:08:45;;;;;;;36.15;22.88;;;24.60;45.20;;;;;;6058963;28;85106;-70
2023/01/02 10:11:46;;;;;;;40.05;26.45;;;24.60;43.70;;;;;;6072484;28;83832;-65
2023/01/02 10:14:46;;;;;;;38.85;26.13;;;24.50;43.10;;;;;;6061677;28;83074;-71
2023/01/02 10:17:47;;;;;;;39.88;27.25;;;24.30;41.80;;;;;;6060903;28;86085;-72
2023/01/02 10:20:48;;;;;;;45.92;28.10;;;24.30;41.40;;;;;;6076649;28;83974;-71
2023/01/02 10:23:48;;;;;;;39.00;24.48;;;24.20;41.00;;;;;;6060746;28;83259;-61
2023/01/02 10:26:49;;;;;;;28.65;20.52;;;24.30;42.00;;;;;;6049144;28;83872;-61
2023/01/02 10:29:49;;;;;;;26.02;17.80;;;24.60;42.70;;;;;;6079561;28;84361;-68
2023/01/02 10:32:50;;;;;;;30.48;16.02;;;24.90;43.00;;;;;;6076856;28;83168;-72
2023/01/02 10:35:50;;;;;;;19.85;14.73;;;25.10;43.30;;;;;;6083230;28;83579;-72
2023/01/02 10:38:51;;;;;;;22.40;14.30;;;25.30;43.50;;;;;;6070957;28;83001;-72
2023/01/02 10:41:51;;;;;;;19.42;12.45;;;25.50;44.10;;;;;;6071648;28;83418;-70
2023/01/02 10:44:52;;;;;;;16.30;11.48;;;25.70;44.10;;;;;;6073462;28;83135;-67
2023/01/02 10:47:52;;;;;;;18.13;12.10;;;25.90;44.10;;;;;;6082053;28;83549;-68
2023/01/02 10:50:53;;;;;;;18.80;12.18;;;26.20;44.20;;;;;;6070238;28;82964;-70
2023/01/02 10:53:53;;;;;;;16.58;10.60;;;26.30;44.20;;;;;;6075074;28;83875;-65
2023/01/02 10:56:56;;;;;;;15.68;11.35;;;26.40;44.10;;;;;;6065752;28;83816;-59
2023/01/02 10:59:57;;;;;;;14.55;10.30;;;26.50;44.40;;;;;;6037686;28;83352;-58
2023/01/02 11:02:57;;;;;;;15.95;11.88;;;26.70;44.80;;;;;;6046561;28;84562;-60
2023/01/02 11:05:58;;;;;;;14.65;10.70;;;26.80;44.80;;;;;;6047809;28;83672;-60
2023/01/02 11:08:59;;;;;;;13.23;9.27;;;26.90;44.90;;;;;;6038466;28;87684;-61
2023/01/02 11:11:59;;;;;;;12.18;9.13;;;26.90;44.90;;;;;;6046423;28;86373;-58
2023/01/02 11:15:01;;;;;;;11.55;8.70;;;27.00;45.30;;;;;;6064652;28;80517;-59
2023/01/02 11:18:02;;;;;;;13.05;8.52;;;27.00;45.70;;;;;;6064654;28;81862;-60
2023/01/02 11:21:03;;;;;;;11.95;8.43;;;27.10;45.90;;;;;;6058451;28;82092;-61
2023/01/02 11:24:03;;;;;;;12.88;8.43;;;27.10;46.10;;;;;;6061139;28;81710;-61
2023/01/02 11:27:05;;;;;;;10.35;7.80;;;27.10;46.30;;;;;;6056790;28;81209;-61
2023/01/02 11:30:05;;;;;;;11.77;8.57;;;27.00;46.50;;;;;;6084976;28;86018;-70
2023/01/02 11:33:06;;;;;;;12.15;7.55;;;27.00;46.60;;;;;;6072098;28;81617;-72
2023/01/02 11:36:06;;;;;;;10.38;7.47;;;27.00;46.60;;;;;;6056736;28;80824;-71
2023/01/02 11:39:07;;;;;;;11.10;7.22;;;27.00;46.40;;;;;;6053407;28;82701;-72
2023/01/02 11:45:27;;;;;;;10.40;7.10;;;27.20;46.30;;;;;;6056676;28;80619;-70
2023/01/02 11:48:27;;;;;;;8.88;6.78;;;27.20;46.30;;;;;;6066292;28;80561;-71
2023/01/02 11:51:28;;;;;;;11.07;7.47;;;27.20;46.20;;;;;;6063760;28;80763;-72
2023/01/02 11:54:29;;;;;;;11.15;7.63;;;27.30;46.10;;;;;;6066257;28;81383;-71
2023/01/02 11:57:29;;;;;;;11.32;6.35;;;27.40;46.00;;;;;;6062632;28;80784;-65
2023/01/02 12:00:30;;;;;;;10.73;6.40;;;27.40;45.90;;;;;;6075347;28;80476;-66
2023/01/02 12:03:32;;;;;;;7.30;5.60;;;27.50;46.00;;;;;;6053927;28;85014;-67
2023/01/02 12:06:32;;;;;;;7.60;5.78;;;27.40;46.30;;;;;;6037906;28;80932;-59
2023/01/02 12:09:33;;;;;;;10.00;5.70;;;27.50;46.40;;;;;;6046333;28;80583;-59
2023/01/02 12:12:33;;;;;;;9.10;5.85;;;27.40;46.30;;;;;;6049340;28;80927;-60
2023/01/02 12:15:34;;;;;;;7.95;5.35;;;27.50;46.30;;;;;;6040434;28;83836;-58
2023/01/02 12:18:34;;;;;;;6.32;5.05;;;27.40;46.50;;;;;;6063424;28;81117;-59
2023/01/02 12:21:35;;;;;;;9.68;5.97;;;27.40;46.30;;;;;;6062430;28;82667;-57
2023/01/02 12:24:35;;;;;;;8.05;5.57;;;27.40;46.30;;;;;;6061515;28;84853;-73
2023/01/02 12:27:36;;;;;;;10.20;5.47;;;27.50;46.30;;;;;;6057786;28;80935;-68
2023/01/02 12:30:36;;;;;;;8.55;5.57;;;27.50;46.30;;;;;;6075425;28;80315;-72
2023/01/02 12:33:37;;;;;;;7.28;5.05;;;27.60;46.30;;;;;;6062470;28;80539;-69
2023/01/02 12:36:38;;;;;;;8.95;5.20;;;27.60;46.30;;;;;;6086151;28;81386;-67
2023/01/02 12:39:38;;;;;;;7.80;6.15;;;27.50;46.10;;;;;;6065451;28;81340;-66
2023/01/02 12:42:39;;;;;;;6.95;5.68;;;27.50;46.40;;;;;;6074759;28;80645;-60
2023/01/02 12:45:39;;;;;;;10.32;5.38;;;27.50;46.70;;;;;;6067630;28;81567;-60
2023/01/02 12:48:41;;;;;;;8.15;5.18;;;27.60;46.80;;;;;;6069936;28;81505;-60
2023/01/02 12:51:41;;;;;;;10.43;5.30;;;27.60;46.60;;;;;;6078896;28;80140;-61
2023/01/02 12:54:42;;;;;;;11.45;5.22;;;27.60;46.60;;;;;;6050908;28;81239;-61
2023/01/02 12:57:42;;;;;;;6.28;5.05;;;27.70;46.60;;;;;;6075633;28;81102;-59
2023/01/02 13:00:43;;;;;;;7.38;4.88;;;27.70;46.60;;;;;;6063035;28;81027;-64
2023/01/02 13:03:43;;;;;;;6.47;4.82;;;27.70;46.60;;;;;;6058415;28;80730;-67
2023/01/02 13:06:44;;;;;;;8.27;5.47;;;27.70;46.70;;;;;;6058762;28;80777;-68
2023/01/02 13:09:45;;;;;;;6.65;4.70;;;27.80;46.70;;;;;;6056078;28;81512;-66
2023/01/02 13:12:46;;;;;;;8.02;5.22;;;27.80;46.60;;;;;;6069285;28;81482;-66
2023/01/02 13:15:46;;;;;;;7.50;4.97;;;27.80;46.30;;;;;;6064256;28;80238;-67
2023/01/02 13:18:47;;;;;;;10.38;5.28;;;27.80;46.30;;;;;;6074848;28;81190;-69
2023/01/02 13:21:48;;;;;;;6.57;4.75;;;27.80;46.30;;;;;;6070436;28;80744;-70
2023/01/02 13:24:48;;;;;;;7.05;5.13;;;27.80;46.20;;;;;;6052159;28;80614;-69
2023/01/02 13:27:49;;;;;;;6.40;5.00;;;27.70;46.20;;;;;;6053496;28;81053;-70
2023/01/02 13:30:50;;;;;;;6.32;4.82;;;27.70;46.20;;;;;;6063365;28;80696;-69
2023/01/02 13:33:50;;;;;;;8.15;5.40;;;27.70;46.40;;;;;;6063227;28;85552;-66
2023/01/02 13:36:51;;;;;;;7.95;4.38;;;27.60;46.40;;;;;;6073675;28;80889;-72
2023/01/02 13:39:51;;;;;;;7.22;4.93;;;27.50;46.40;;;;;;6066897;28;80460;-72
2023/01/02 13:42:57;;;;;;;7.07;5.40;;;27.50;46.40;;;;;;6061780;28;81465;-72
2023/01/02 13:45:58;;;;;;;7.82;4.90;;;27.30;46.40;;;;;;6066131;28;81029;-72
2023/01/02 13:49:00;;;;;;;8.45;4.93;;;27.30;46.50;;;;;;6068968;28;80786;-72
2023/01/02 13:52:00;;;;;;;6.25;4.65;;;27.20;46.60;;;;;;6067618;28;81095;-73
2023/01/02 13:55:01;;;;;;;7.63;5.15;;;27.10;46.60;;;;;;6062107;28;80579;-68
2023/01/02 13:58:01;;;;;;;6.97;5.20;;;27.10;46.70;;;;;;6067062;28;80727;-68
2023/01/02 14:01:02;;;;;;;6.80;4.80;;;27.00;46.70;;;;;;6063452;28;82261;-68
2023/01/02 14:04:02;;;;;;;9.15;4.85;;;27.00;46.70;;;;;;6063630;28;80626;-67
2023/01/02 14:07:03;;;;;;;8.63;4.60;;;26.90;46.80;;;;;;6066019;28;80853;-67
2023/01/02 14:10:04;;;;;;;7.03;4.60;;;26.80;46.80;;;;;;6069903;28;80729;-68
2023/01/02 14:13:04;;;;;;;5.70;4.55;;;26.80;46.80;;;;;;6071451;28;81868;-67
2023/01/02 14:16:05;;;;;;;9.85;5.50;;;26.80;46.80;;;;;;6065040;28;80248;-67
2023/01/02 14:19:05;;;;;;;6.90;5.00;;;26.80;46.60;;;;;;6072116;28;81015;-67
2023/01/02 14:22:06;;;;;;;8.30;4.72;;;26.80;46.60;;;;;;6071829;28;83114;-67
2023/01/02 14:25:07;;;;;;;6.10;4.75;;;26.80;46.70;;;;;;6057301;28;80553;-67
2023/01/02 14:28:07;;;;;;;7.07;4.82;;;26.70;46.60;;;;;;6060498;28;80654;-70
2023/01/02 14:31:08;;;;;;;9.77;4.50;;;26.70;46.70;;;;;;6070709;28;81096;-65
2023/01/02 14:34:08;;;;;;;12.88;5.68;;;26.50;46.50;;;;;;6056141;28;81230;-62
2023/01/02 14:37:09;;;;;;;8.68;5.53;;;26.40;47.20;;;;;;6059101;28;80598;-62
2023/01/02 14:40:09;;;;;;;13.85;6.65;;;26.30;47.00;;;;;;6061241;28;82396;-61
2023/01/02 14:46:29;;;;;;;8.88;6.25;;;26.10;47.20;;;;;;6093094;28;84776;-60
2023/01/02 14:49:30;;;;;;;8.07;6.28;;;26.00;47.30;;;;;;6080496;28;80536;-62
2023/01/02 14:52:30;;;;;;;9.88;6.55;;;26.00;47.70;;;;;;6087469;28;80209;-62
2023/01/02 14:55:31;;;;;;;9.70;5.88;;;25.90;47.70;;;;;;6095242;28;81502;-61
2023/01/02 14:58:31;;;;;;;8.75;5.95;;;25.90;48.00;;;;;;6095581;28;80872;-61
2023/01/02 15:01:32;;;;;;;11.23;6.72;;;25.80;48.10;;;;;;6089874;28;83624;-61
2023/01/02 15:04:38;;;;;;;9.88;5.63;;;25.70;48.20;;;;;;6092637;28;86037;-60
2023/01/02 15:07:39;;;;;;;7.43;5.30;;;25.70;48.40;;;;;;6099820;28;81271;-60
2023/01/02 15:10:40;;;;;;;10.90;6.00;;;25.70;48.60;;;;;;6097886;28;80641;-62
2023/01/02 15:13:40;;;;;;;14.35;5.13;;;25.60;48.60;;;;;;6098809;28;80636;-62
2023/01/02 15:16:41;;;;;;;9.98;4.78;;;25.60;48.70;;;;;;6091671;28;81323;-62
2023/01/02 15:19:41;;;;;;;6.57;4.80;;;25.50;48.60;;;;;;6086558;28;82519;-67
2023/01/02 15:22:42;;;;;;;7.18;4.70;;;25.50;49.00;;;;;;6099270;28;80864;-66
2023/01/02 15:25:42;;;;;;;9.00;4.82;;;25.50;48.90;;;;;;6071523;28;80473;-64
2023/01/02 15:28:43;;;;;;;7.95;5.07;;;25.40;49.00;;;;;;6082150;28;80776;-59
2023/01/02 15:31:43;;;;;;;9.07;5.13;;;25.30;49.00;;;;;;6084400;28;83320;-60
2023/01/02 15:34:44;;;;;;;9.05;5.43;;;25.30;49.30;;;;;;6069320;28;83366;-61